Aviation Digital Data Service (ADDS)

Output produced by METARs form (1214 UTC 26 July 2016)
found at http://aviationweather.gov/adds/metars/
 
KPHL 261139Z 2612/2718 26006KT P6SM FEW100 BKN250 
     FM261300 32007KT P6SM BKN250 
     FM261600 29011KT P6SM SCT050 BKN250 
     FM270000 29006KT P6SM SCT250 
     FM270400 36004KT P6SM SCT250 
     FM271600 26006KT P6SM SCT050